createdAt,value
2017-07-24T00:01:13.358Z,23.74
2017-07-24T00:03:40.871Z,23.75
2017-07-24T00:06:08.432Z,23.72
2017-07-24T00:08:35.946Z,23.75
2017-07-24T00:11:03.505Z,23.70
2017-07-24T00:13:31.032Z,23.73
2017-07-24T00:15:58.584Z,23.81
2017-07-24T00:18:26.104Z,23.70
2017-07-24T00:20:53.670Z,23.72
2017-07-24T00:23:21.185Z,23.80
2017-07-24T00:25:48.739Z,23.84
2017-07-24T00:28:16.266Z,23.84
2017-07-24T00:30:43.846Z,23.83
2017-07-24T00:33:11.371Z,23.82
2017-07-24T00:35:38.889Z,23.81
2017-07-24T00:38:06.437Z,23.78
2017-07-24T00:40:33.958Z,23.79
2017-07-24T00:43:01.502Z,23.72
2017-07-24T00:45:29.021Z,23.70
2017-07-24T00:47:56.573Z,23.68
2017-07-24T00:50:24.092Z,23.65
2017-07-24T00:52:51.638Z,23.63
2017-07-24T00:55:19.164Z,23.59
2017-07-24T00:57:46.711Z,23.56
2017-07-24T01:00:14.239Z,23.55
2017-07-24T01:02:41.796Z,23.55
2017-07-24T01:05:09.310Z,23.51
2017-07-24T01:07:36.860Z,23.50
2017-07-24T01:10:04.388Z,23.47
2017-07-24T01:12:31.936Z,23.60
2017-07-24T01:14:59.448Z,23.65
2017-07-24T01:17:27.005Z,23.55
2017-07-24T01:19:54.622Z,23.50
2017-07-24T01:22:22.190Z,23.51
2017-07-24T01:24:49.721Z,23.52
2017-07-24T01:27:17.253Z,23.49
2017-07-24T01:29:44.816Z,23.47
2017-07-24T01:32:12.341Z,23.48
2017-07-24T01:34:39.897Z,23.47
2017-07-24T01:37:07.435Z,23.45
2017-07-24T01:39:34.989Z,23.41
2017-07-24T01:42:02.532Z,23.35
2017-07-24T01:44:30.094Z,23.38
2017-07-24T01:46:57.616Z,23.34
2017-07-24T01:49:25.220Z,23.30
2017-07-24T01:51:52.762Z,23.28
2017-07-24T01:54:20.311Z,23.27
2017-07-24T01:56:47.869Z,23.38
2017-07-24T01:59:15.450Z,23.31
2017-07-24T02:01:43.120Z,23.26
2017-07-24T02:04:10.668Z,23.27
2017-07-24T02:06:38.188Z,23.16
2017-07-24T02:09:05.743Z,23.25
2017-07-24T02:11:33.264Z,23.23
2017-07-24T02:14:00.837Z,23.14
2017-07-24T02:16:28.368Z,23.21
2017-07-24T02:18:55.881Z,23.22
2017-07-24T02:21:23.428Z,23.27
2017-07-24T02:23:50.949Z,23.19
2017-07-24T02:26:18.498Z,23.16
2017-07-24T02:28:46.013Z,23.22
2017-07-24T02:31:13.564Z,23.19
2017-07-24T02:33:41.084Z,23.21
2017-07-24T02:36:08.646Z,23.14
2017-07-24T02:38:36.164Z,23.18
2017-07-24T02:41:03.722Z,23.10
2017-07-24T02:43:31.249Z,23.14
2017-07-24T02:45:58.806Z,23.10
2017-07-24T02:48:26.324Z,23.11
2017-07-24T02:50:53.904Z,23.10
2017-07-24T02:53:21.419Z,23.06
2017-07-24T02:55:48.964Z,23.09
2017-07-24T02:58:16.484Z,23.04
2017-07-24T03:00:44.044Z,23.04
2017-07-24T03:03:11.559Z,23.05
2017-07-24T03:05:39.211Z,22.96
2017-07-24T03:08:06.725Z,23.00
2017-07-24T03:10:34.247Z,23.03
2017-07-24T03:13:01.812Z,23.07
2017-07-24T03:15:29.406Z,23.02
2017-07-24T03:17:56.969Z,22.95
2017-07-24T03:20:24.481Z,22.97
2017-07-24T03:22:52.039Z,22.94
2017-07-24T03:25:19.640Z,22.89
2017-07-24T03:27:47.188Z,22.79
2017-07-24T03:30:14.706Z,22.82
2017-07-24T03:32:42.261Z,22.63
2017-07-24T03:35:09.792Z,22.70
2017-07-24T03:37:37.369Z,22.84
2017-07-24T03:40:04.892Z,22.82
2017-07-24T03:42:32.450Z,22.68
2017-07-24T03:44:59.965Z,22.76
2017-07-24T03:47:27.536Z,22.82
2017-07-24T03:49:55.058Z,22.68
2017-07-24T03:52:22.619Z,22.67
2017-07-24T03:54:50.151Z,22.65
2017-07-24T03:57:17.812Z,22.64
2017-07-24T03:59:45.334Z,22.69
2017-07-24T04:02:12.850Z,22.63
2017-07-24T04:04:40.401Z,22.66
2017-07-24T04:07:07.927Z,22.66
2017-07-24T04:09:35.496Z,22.63
2017-07-24T04:12:03.016Z,22.68
2017-07-24T04:14:30.568Z,22.74
2017-07-24T04:16:58.085Z,22.65
2017-07-24T04:19:25.628Z,22.67
2017-07-24T04:21:53.141Z,22.66
2017-07-24T04:24:20.689Z,22.70
2017-07-24T04:26:48.205Z,22.68
2017-07-24T04:29:15.753Z,22.60
2017-07-24T04:31:43.277Z,22.72
2017-07-24T04:34:10.831Z,22.90
2017-07-24T04:36:38.453Z,23.02
2017-07-24T04:39:06.113Z,23.10
2017-07-24T04:41:33.640Z,23.17
2017-07-24T04:44:01.190Z,23.22
2017-07-24T04:46:28.714Z,23.26
2017-07-24T04:48:56.237Z,23.41
2017-07-24T04:51:23.785Z,23.55
2017-07-24T04:53:51.354Z,23.66
2017-07-24T04:56:18.914Z,23.67
2017-07-24T04:58:46.439Z,23.68
2017-07-24T05:01:14.009Z,23.65
2017-07-24T05:03:41.525Z,23.66
2017-07-24T05:06:09.080Z,23.71
2017-07-24T05:08:36.603Z,23.72
2017-07-24T05:11:04.167Z,23.74
2017-07-24T05:13:31.692Z,23.73
2017-07-24T05:15:59.246Z,23.76
2017-07-24T05:18:26.767Z,23.78
2017-07-24T05:20:54.314Z,23.78
2017-07-24T05:23:21.830Z,23.78
2017-07-24T05:25:49.396Z,23.79
2017-07-24T05:28:16.962Z,23.79
2017-07-24T05:30:44.522Z,23.78
2017-07-24T05:33:12.043Z,23.78
2017-07-24T05:35:39.664Z,23.84
2017-07-24T05:38:07.181Z,23.85
2017-07-24T05:40:34.688Z,23.87
2017-07-24T05:43:02.244Z,23.85
2017-07-24T05:45:29.800Z,23.88
2017-07-24T05:47:57.353Z,23.86
2017-07-24T05:50:24.865Z,23.87
2017-07-24T05:52:52.415Z,23.85
2017-07-24T05:55:19.927Z,23.87
2017-07-24T05:57:47.472Z,23.88
2017-07-24T06:00:14.998Z,23.92
2017-07-24T06:02:42.544Z,23.91
2017-07-24T06:05:10.290Z,23.89
2017-07-24T06:07:37.851Z,23.91
2017-07-24T06:10:05.379Z,23.90
2017-07-24T06:12:32.934Z,23.91
2017-07-24T06:15:00.517Z,23.92
2017-07-24T06:17:28.062Z,23.92
2017-07-24T06:19:55.583Z,23.92
2017-07-24T06:22:23.150Z,23.93
2017-07-24T06:24:50.684Z,23.94
2017-07-24T06:27:18.253Z,23.96
2017-07-24T06:29:45.791Z,23.94
2017-07-24T06:32:13.311Z,23.95
2017-07-24T06:34:40.865Z,23.93
2017-07-24T06:37:08.395Z,23.95
2017-07-24T06:39:35.946Z,23.95
2017-07-24T06:42:03.474Z,23.96
2017-07-24T06:44:31.031Z,23.94
2017-07-24T06:46:58.569Z,24.00
2017-07-24T06:49:26.112Z,23.98
2017-07-24T06:51:53.636Z,23.95
2017-07-24T06:54:21.195Z,23.96
2017-07-24T06:56:48.724Z,23.99
2017-07-24T06:59:16.276Z,24.00
2017-07-24T07:01:43.791Z,24.00
2017-07-24T07:04:11.375Z,23.98
2017-07-24T07:06:38.890Z,24.00
2017-07-24T07:09:06.440Z,24.02
2017-07-24T07:11:33.969Z,24.01
2017-07-24T07:14:01.523Z,24.01
2017-07-24T07:16:29.045Z,24.03
2017-07-24T07:18:56.614Z,24.02
2017-07-24T07:21:24.133Z,23.98
2017-07-24T07:23:51.650Z,23.96
2017-07-24T07:26:19.198Z,24.01
2017-07-24T07:28:46.717Z,24.03
2017-07-24T07:31:14.269Z,24.03
2017-07-24T07:33:41.783Z,24.03
2017-07-24T07:36:09.334Z,24.02
2017-07-24T07:38:36.844Z,24.02
2017-07-24T07:41:04.389Z,24.03
2017-07-24T07:43:31.905Z,24.00
2017-07-24T07:45:59.456Z,24.02
2017-07-24T07:48:26.973Z,24.00
2017-07-24T07:50:54.524Z,24.02
2017-07-24T07:53:22.040Z,24.03
2017-07-24T07:55:49.590Z,24.05
2017-07-24T07:58:17.116Z,24.05
2017-07-24T08:00:44.678Z,24.05
2017-07-24T08:03:12.196Z,24.03
2017-07-24T08:05:39.750Z,24.05
2017-07-24T08:08:07.272Z,24.03
2017-07-24T08:10:34.847Z,24.01
2017-07-24T08:13:02.371Z,24.03
2017-07-24T08:15:29.885Z,24.07
2017-07-24T08:17:57.429Z,24.05
2017-07-24T08:20:24.940Z,24.07
2017-07-24T08:22:52.480Z,24.05
2017-07-24T08:25:19.998Z,24.06
2017-07-24T08:27:47.554Z,24.04
2017-07-24T08:30:15.073Z,24.04
2017-07-24T08:32:42.614Z,24.05
2017-07-24T08:35:10.132Z,24.05
2017-07-24T08:37:38.536Z,24.06
2017-07-24T08:40:06.070Z,24.05
2017-07-24T08:42:33.617Z,24.08
2017-07-24T08:45:01.199Z,24.08
2017-07-24T08:47:28.740Z,24.06
2017-07-24T08:49:56.259Z,24.07
2017-07-24T08:52:23.807Z,24.05
2017-07-24T08:54:51.321Z,24.03
2017-07-24T08:57:18.864Z,24.02
2017-07-24T08:59:46.393Z,24.01
2017-07-24T09:02:13.950Z,24.02
2017-07-24T09:04:41.467Z,24.00
2017-07-24T09:07:08.987Z,23.97
2017-07-24T09:09:36.548Z,23.95
2017-07-24T09:12:04.069Z,23.96
2017-07-24T09:14:31.613Z,23.93
2017-07-24T09:16:59.126Z,23.92
2017-07-24T09:19:26.687Z,23.91
2017-07-24T09:21:54.207Z,23.88
2017-07-24T09:24:21.752Z,23.91
2017-07-24T09:26:49.269Z,23.91
2017-07-24T09:29:16.824Z,23.92
2017-07-24T09:31:44.350Z,23.91
2017-07-24T09:34:11.898Z,23.92
2017-07-24T09:36:39.414Z,23.90
2017-07-24T09:39:06.960Z,23.91
2017-07-24T09:41:34.480Z,23.90
2017-07-24T09:44:02.038Z,23.90
2017-07-24T09:46:29.558Z,23.91
2017-07-24T09:48:57.107Z,23.93
2017-07-24T09:51:24.621Z,23.94
2017-07-24T09:53:52.171Z,23.93
2017-07-24T09:56:19.688Z,23.92
2017-07-24T09:58:47.206Z,23.92
2017-07-24T10:01:14.766Z,23.93
2017-07-24T10:03:42.285Z,23.93
2017-07-24T10:06:09.834Z,23.87
2017-07-24T10:08:37.348Z,23.94
2017-07-24T10:11:04.899Z,23.89
2017-07-24T10:13:32.417Z,23.90
2017-07-24T10:15:59.959Z,23.90
2017-07-24T10:18:27.486Z,23.90
2017-07-24T10:20:55.026Z,23.90
2017-07-24T10:23:22.546Z,23.92
2017-07-24T10:25:50.102Z,23.90
2017-07-24T10:28:17.620Z,23.93
2017-07-24T10:30:45.176Z,23.96
2017-07-24T10:33:12.706Z,23.95
2017-07-24T10:35:40.254Z,23.92
2017-07-24T10:38:07.772Z,23.91
2017-07-24T10:40:35.325Z,23.95
2017-07-24T10:43:02.837Z,23.93
2017-07-24T10:45:30.394Z,23.93
2017-07-24T10:47:57.918Z,23.93
2017-07-24T10:50:25.438Z,23.92
2017-07-24T10:52:52.977Z,23.92
2017-07-24T10:55:20.488Z,23.92
2017-07-24T10:57:48.070Z,23.92
2017-07-24T11:00:15.590Z,23.91
2017-07-24T11:02:43.151Z,23.91
2017-07-24T11:05:10.667Z,23.88
2017-07-24T11:07:38.216Z,23.92
2017-07-24T11:10:05.735Z,23.94
2017-07-24T11:12:33.280Z,23.94
2017-07-24T11:15:00.793Z,23.92
2017-07-24T11:17:28.354Z,23.92
2017-07-24T11:19:55.875Z,23.92
2017-07-24T11:22:23.434Z,23.94
2017-07-24T11:24:50.953Z,23.95
2017-07-24T11:27:18.515Z,23.94
2017-07-24T11:29:46.037Z,23.93
2017-07-24T11:32:13.573Z,23.95
2017-07-24T11:34:41.121Z,23.94
2017-07-24T11:37:08.641Z,23.96
2017-07-24T11:39:36.188Z,23.92
2017-07-24T11:42:03.714Z,23.95
2017-07-24T11:44:31.261Z,23.93
2017-07-24T11:46:58.785Z,23.92
2017-07-24T11:49:26.349Z,23.96
2017-07-24T11:51:53.860Z,23.93
2017-07-24T11:54:21.407Z,23.95
2017-07-24T11:56:48.928Z,23.94
2017-07-24T11:59:16.471Z,23.92
2017-07-24T12:01:43.984Z,23.93
2017-07-24T12:04:11.536Z,23.93
2017-07-24T12:06:39.056Z,23.95
2017-07-24T12:09:06.598Z,23.92
2017-07-24T12:11:34.126Z,23.92
2017-07-24T12:14:01.672Z,23.93
2017-07-24T12:16:29.190Z,23.94
2017-07-24T12:18:56.705Z,23.95
2017-07-24T12:21:24.262Z,23.95
2017-07-24T12:23:51.778Z,23.92
2017-07-24T12:26:19.333Z,23.93
2017-07-24T12:28:46.851Z,23.94
2017-07-24T12:31:14.396Z,23.92
2017-07-24T12:33:41.913Z,23.93
2017-07-24T12:36:09.461Z,23.94
2017-07-24T12:38:36.981Z,23.92
2017-07-24T12:41:04.530Z,23.94
2017-07-24T12:43:32.043Z,23.94
2017-07-24T12:45:59.580Z,23.92
2017-07-24T12:48:27.092Z,23.92
2017-07-24T12:50:54.632Z,23.89
2017-07-24T12:53:22.150Z,23.92
2017-07-24T12:55:49.698Z,23.93
2017-07-24T12:58:17.209Z,23.93
2017-07-24T13:00:44.769Z,23.94
2017-07-24T13:03:12.287Z,23.93
2017-07-24T13:05:39.837Z,23.90
2017-07-24T13:08:07.361Z,23.91
2017-07-24T13:10:34.875Z,23.92
2017-07-24T13:13:02.430Z,23.92
2017-07-24T13:15:29.949Z,23.92
2017-07-24T13:17:57.500Z,23.94
2017-07-24T13:20:25.017Z,23.93
2017-07-24T13:22:52.581Z,23.91
2017-07-24T13:25:20.095Z,23.95
2017-07-24T13:27:47.643Z,23.94
2017-07-24T13:30:15.170Z,23.93
2017-07-24T13:32:42.713Z,23.95
2017-07-24T13:35:10.227Z,23.98
2017-07-24T13:37:37.779Z,23.99
2017-07-24T13:40:05.298Z,23.99
2017-07-24T13:42:32.862Z,23.99
2017-07-24T13:45:00.385Z,23.97
2017-07-24T13:47:27.939Z,23.98
2017-07-24T13:49:55.459Z,23.99
2017-07-24T13:52:22.974Z,24.01
2017-07-24T13:54:50.511Z,23.99
2017-07-24T13:57:18.029Z,23.98
2017-07-24T13:59:45.590Z,23.95
2017-07-24T14:02:13.111Z,23.95
2017-07-24T14:04:40.658Z,23.96
2017-07-24T14:07:08.221Z,23.99
2017-07-24T14:09:35.769Z,23.96
2017-07-24T14:12:03.294Z,23.98
2017-07-24T14:14:30.847Z,23.96
2017-07-24T14:16:58.368Z,23.96
2017-07-24T14:19:25.917Z,23.99
2017-07-24T14:21:53.436Z,24.00
2017-07-24T14:24:20.993Z,23.97
2017-07-24T14:26:48.513Z,23.97
2017-07-24T14:29:16.061Z,23.99
2017-07-24T14:31:43.583Z,24.01
2017-07-24T14:34:11.132Z,24.03
2017-07-24T14:36:38.646Z,24.02
2017-07-24T14:39:06.198Z,24.03
2017-07-24T14:41:33.717Z,24.05
2017-07-24T14:44:01.236Z,24.07
2017-07-24T14:46:28.782Z,24.07
2017-07-24T14:48:56.309Z,24.05
2017-07-24T14:51:23.851Z,24.07
2017-07-24T14:53:51.368Z,24.06
2017-07-24T14:56:18.914Z,24.06
2017-07-24T14:58:46.440Z,24.05
2017-07-24T15:01:13.988Z,24.05
2017-07-24T15:03:41.506Z,24.06
2017-07-24T15:06:09.057Z,24.05
2017-07-24T15:08:36.580Z,24.05
2017-07-24T15:11:04.126Z,24.05
2017-07-24T15:13:31.642Z,24.04
2017-07-24T15:15:59.195Z,24.06
2017-07-24T15:18:26.723Z,24.06
2017-07-24T15:20:54.274Z,24.06
2017-07-24T15:23:21.790Z,24.05
2017-07-24T15:25:49.339Z,24.05
2017-07-24T15:28:16.890Z,24.07
2017-07-24T15:30:44.405Z,24.04
2017-07-24T15:33:11.967Z,24.04
2017-07-24T15:35:39.503Z,24.00
2017-07-24T15:38:07.054Z,23.98
2017-07-24T15:40:34.569Z,24.00
2017-07-24T15:43:02.110Z,24.01
2017-07-24T15:45:29.629Z,24.01
2017-07-24T15:47:57.185Z,24.01
2017-07-24T15:50:24.698Z,23.98
2017-07-24T15:52:52.242Z,24.00
2017-07-24T15:55:19.762Z,23.98
2017-07-24T15:57:47.312Z,24.00
2017-07-24T16:00:14.822Z,23.99
2017-07-24T16:02:42.369Z,24.01
2017-07-24T16:05:09.890Z,23.98
2017-07-24T16:07:37.430Z,24.00
2017-07-24T16:10:04.951Z,24.03
2017-07-24T16:12:32.472Z,24.00
2017-07-24T16:15:00.023Z,23.98
2017-07-24T16:17:27.541Z,23.98
2017-07-24T16:19:55.101Z,23.99
2017-07-24T16:22:22.616Z,24.00
2017-07-24T16:24:50.166Z,23.97
2017-07-24T16:27:17.682Z,23.96
2017-07-24T16:29:45.233Z,23.98
2017-07-24T16:32:12.757Z,24.02
2017-07-24T16:34:40.318Z,24.01
2017-07-24T16:37:07.836Z,24.02
2017-07-24T16:39:35.390Z,24.04
2017-07-24T16:42:02.914Z,24.05
2017-07-24T16:44:30.460Z,24.04
2017-07-24T16:46:57.982Z,24.01
2017-07-24T16:49:25.537Z,24.01
2017-07-24T16:51:53.057Z,24.02
2017-07-24T16:54:20.607Z,24.01
2017-07-24T16:56:48.130Z,24.01
2017-07-24T16:59:15.649Z,24.02
2017-07-24T17:01:43.208Z,23.95
2017-07-24T17:04:10.729Z,23.99
2017-07-24T17:06:38.272Z,24.00
2017-07-24T17:09:05.788Z,24.01
2017-07-24T17:11:33.337Z,24.00
2017-07-24T17:14:00.862Z,24.01
2017-07-24T17:16:28.416Z,23.96
2017-07-24T17:18:55.937Z,23.97
2017-07-24T17:21:23.489Z,24.00
2017-07-24T17:23:51.013Z,24.00
2017-07-24T17:26:18.570Z,23.98
2017-07-24T17:28:46.086Z,24.01
2017-07-24T17:31:13.640Z,24.02
2017-07-24T17:33:41.155Z,23.97
2017-07-24T17:36:08.694Z,24.01
2017-07-24T17:38:36.213Z,24.01
2017-07-24T17:41:03.769Z,24.02
2017-07-24T17:43:31.290Z,24.01
2017-07-24T17:45:58.803Z,24.00
2017-07-24T17:48:26.362Z,23.99
2017-07-24T17:50:53.878Z,23.98
2017-07-24T17:53:21.430Z,23.97
2017-07-24T17:55:48.947Z,23.96
2017-07-24T17:58:16.496Z,23.97
2017-07-24T18:00:44.022Z,23.99
2017-07-24T18:03:11.577Z,23.96
2017-07-24T18:05:39.103Z,23.97
2017-07-24T18:08:06.655Z,23.98
2017-07-24T18:10:34.175Z,23.95
2017-07-24T18:13:01.724Z,23.96
2017-07-24T18:15:29.239Z,23.96
2017-07-24T18:17:56.788Z,23.97
2017-07-24T18:20:24.306Z,23.98
2017-07-24T18:22:51.863Z,23.97
2017-07-24T18:25:19.389Z,23.93
2017-07-24T18:27:46.947Z,23.98
2017-07-24T18:30:14.460Z,23.97
2017-07-24T18:32:42.042Z,23.97
2017-07-24T18:35:09.563Z,23.96
2017-07-24T18:37:37.094Z,23.98
2017-07-24T18:40:04.649Z,23.97
2017-07-24T18:42:32.170Z,24.00
2017-07-24T18:44:59.723Z,24.02
2017-07-24T18:47:27.255Z,24.00
2017-07-24T18:49:54.801Z,23.97
2017-07-24T18:52:22.325Z,24.00
2017-07-24T18:54:49.862Z,24.00
2017-07-24T18:57:17.387Z,24.02
2017-07-24T18:59:44.941Z,24.04
2017-07-24T19:02:12.457Z,24.00
2017-07-24T19:04:40.016Z,24.00
2017-07-24T19:07:07.539Z,23.97
2017-07-24T19:09:35.099Z,24.00
2017-07-24T19:12:02.624Z,24.02
2017-07-24T19:14:30.166Z,23.97
2017-07-24T19:16:57.687Z,23.97
2017-07-24T19:19:25.261Z,23.99
2017-07-24T19:21:52.805Z,24.00
2017-07-24T19:24:20.332Z,23.98
2017-07-24T19:26:47.890Z,23.96
2017-07-24T19:29:15.405Z,24.00
2017-07-24T19:31:42.986Z,24.00
2017-07-24T19:34:10.515Z,24.01
2017-07-24T19:36:38.064Z,24.00
2017-07-24T19:39:05.589Z,24.01
2017-07-24T19:41:33.136Z,24.00
2017-07-24T19:44:00.670Z,24.02
2017-07-24T19:46:28.237Z,24.00
2017-07-24T19:48:55.770Z,24.01
2017-07-24T19:51:23.332Z,23.99
2017-07-24T19:53:50.861Z,24.03
2017-07-24T19:56:18.427Z,24.02
2017-07-24T19:58:45.946Z,24.06
2017-07-24T20:01:13.527Z,24.05
2017-07-24T20:03:41.059Z,24.06
2017-07-24T20:06:08.581Z,24.07
2017-07-24T20:08:36.138Z,24.05
2017-07-24T20:11:03.661Z,24.06
2017-07-24T20:13:31.217Z,24.08
2017-07-24T20:15:58.736Z,24.05
2017-07-24T20:18:26.296Z,24.07
2017-07-24T20:20:53.821Z,24.04
2017-07-24T20:23:21.390Z,24.07
2017-07-24T20:25:48.916Z,24.04
2017-07-24T20:28:16.476Z,24.05
2017-07-24T20:30:44.000Z,24.04
2017-07-24T20:33:11.566Z,24.03
2017-07-24T20:35:39.226Z,24.00
2017-07-24T20:38:06.783Z,24.02
2017-07-24T20:40:34.322Z,24.00
2017-07-24T20:43:01.882Z,24.02
2017-07-24T20:45:29.413Z,24.01
2017-07-24T20:47:56.981Z,24.00
2017-07-24T20:50:24.499Z,23.98
2017-07-24T20:52:52.022Z,23.98
2017-07-24T20:55:19.573Z,23.99
2017-07-24T20:57:47.089Z,24.00
2017-07-24T21:00:14.649Z,23.97
2017-07-24T21:02:42.176Z,23.98
2017-07-24T21:05:09.734Z,24.00
2017-07-24T21:07:37.261Z,24.02
2017-07-24T21:10:04.804Z,23.99
2017-07-24T21:12:32.331Z,23.98
2017-07-24T21:14:59.881Z,23.96
2017-07-24T21:17:27.406Z,23.97
2017-07-24T21:19:54.963Z,24.01
2017-07-24T21:22:22.476Z,24.01
2017-07-24T21:24:50.030Z,23.99
2017-07-24T21:27:17.549Z,23.98
2017-07-24T21:29:45.105Z,23.99
2017-07-24T21:32:12.631Z,23.98
2017-07-24T21:34:40.175Z,24.00
2017-07-24T21:37:07.710Z,24.00
2017-07-24T21:39:35.236Z,24.03
2017-07-24T21:42:02.786Z,23.99
2017-07-24T21:44:30.309Z,23.97
2017-07-24T21:46:57.852Z,23.96
2017-07-24T21:49:25.366Z,24.00
2017-07-24T21:51:52.931Z,24.00
2017-07-24T21:54:20.457Z,24.02
2017-07-24T21:56:48.016Z,23.99
2017-07-24T21:59:15.542Z,24.00
2017-07-24T22:01:43.093Z,23.99
2017-07-24T22:04:10.638Z,23.98
2017-07-24T22:06:38.184Z,24.00
2017-07-24T22:09:05.703Z,23.98
2017-07-24T22:11:33.261Z,23.98
2017-07-24T22:14:00.786Z,23.95
2017-07-24T22:16:28.344Z,23.96
2017-07-24T22:18:55.860Z,23.98
2017-07-24T22:21:23.413Z,23.86
2017-07-24T22:23:50.932Z,23.50
2017-07-24T22:26:18.450Z,23.27
2017-07-24T22:28:46.003Z,23.06
2017-07-24T22:31:13.521Z,23.09
2017-07-24T22:33:41.072Z,22.98
2017-07-24T22:36:08.589Z,22.84
2017-07-24T22:38:36.137Z,22.87
2017-07-24T22:41:03.695Z,22.85
2017-07-24T22:43:31.250Z,22.80
2017-07-24T22:45:58.815Z,22.71
2017-07-24T22:48:26.378Z,22.73
2017-07-24T22:50:53.894Z,22.73
2017-07-24T22:53:21.440Z,22.65
2017-07-24T22:55:48.972Z,22.63
2017-07-24T22:58:16.513Z,22.58
2017-07-24T23:00:44.159Z,22.54
2017-07-24T23:03:11.714Z,22.47
2017-07-24T23:05:39.246Z,22.59
2017-07-24T23:08:06.794Z,22.66
2017-07-24T23:10:34.411Z,22.75
2017-07-24T23:13:01.962Z,22.74
2017-07-24T23:15:29.494Z,22.81
2017-07-24T23:17:57.023Z,22.81
2017-07-24T23:20:24.578Z,22.81
2017-07-24T23:22:52.096Z,22.83
2017-07-24T23:25:19.646Z,22.80
2017-07-24T23:27:47.171Z,22.88
2017-07-24T23:30:14.728Z,22.78
2017-07-24T23:32:42.264Z,22.70
2017-07-24T23:35:09.835Z,22.69
2017-07-24T23:37:37.359Z,22.68
2017-07-24T23:40:04.902Z,22.65
2017-07-24T23:42:32.416Z,22.61
2017-07-24T23:44:59.964Z,22.59
2017-07-24T23:47:27.484Z,22.64
2017-07-24T23:49:55.045Z,22.56
2017-07-24T23:52:22.570Z,22.49
2017-07-24T23:54:50.121Z,22.46
2017-07-24T23:57:17.642Z,22.47
2017-07-24T23:59:45.193Z,22.50
